createdAt,value
2023-05-09T00:01:16.062Z,99.90
2023-05-09T00:03:44.245Z,99.90
2023-05-09T00:06:13.388Z,99.90
2023-05-09T00:08:41.580Z,99.90
2023-05-09T00:11:09.668Z,99.90
2023-05-09T00:13:37.664Z,99.90
2023-05-09T00:16:06.763Z,99.90
2023-05-09T00:18:36.644Z,99.90
2023-05-09T00:21:05.069Z,99.90
2023-05-09T00:23:32.981Z,99.90
2023-05-09T00:26:01.093Z,99.90
2023-05-09T00:28:28.996Z,99.90
2023-05-09T00:30:56.989Z,99.90
2023-05-09T00:33:26.887Z,99.90
2023-05-09T00:35:56.523Z,99.90
2023-05-09T00:38:24.809Z,99.90
2023-05-09T00:40:52.902Z,99.90
2023-05-09T00:43:20.897Z,99.90
2023-05-09T00:45:50.814Z,99.90
2023-05-09T00:48:19.503Z,99.90
2023-05-09T00:50:52.683Z,99.90
2023-05-09T00:53:22.403Z,99.90
2023-05-09T00:55:50.533Z,99.90
2023-05-09T00:58:19.317Z,99.90
2023-05-09T01:00:47.972Z,99.90
2023-05-09T01:03:16.210Z,99.90
2023-05-09T01:05:53.341Z,99.90
2023-05-09T01:08:35.858Z,99.90
2023-05-09T01:11:11.122Z,99.90
2023-05-09T01:13:47.382Z,99.90
2023-05-09T01:16:23.636Z,99.90
2023-05-09T01:19:00.046Z,99.90
2023-05-09T01:21:31.576Z,99.90
2023-05-09T01:24:23.673Z,99.90
2023-05-09T01:27:24.079Z,99.90
2023-05-09T01:29:58.468Z,99.90
2023-05-09T01:32:28.481Z,99.90
2023-05-09T01:34:59.495Z,99.90
2023-05-09T01:37:32.077Z,99.90
2023-05-09T01:40:06.110Z,99.90
2023-05-09T01:42:42.041Z,99.90
2023-05-09T01:45:14.888Z,99.90
2023-05-09T01:47:44.998Z,99.90
2023-05-09T01:50:14.009Z,99.90
2023-05-09T01:52:43.822Z,99.90
2023-05-09T01:55:13.483Z,99.90
2023-05-09T01:57:43.021Z,99.90
2023-05-09T02:00:14.791Z,99.90
2023-05-09T02:02:43.226Z,99.90
2023-05-09T02:05:13.382Z,99.90
2023-05-09T02:07:42.777Z,99.90
2023-05-09T02:10:12.421Z,99.90
2023-05-09T02:12:41.791Z,99.90
2023-05-09T02:15:12.240Z,99.90
2023-05-09T02:17:42.459Z,99.90
2023-05-09T02:20:11.557Z,99.90
2023-05-09T02:22:41.712Z,99.90
2023-05-09T02:25:10.839Z,99.90
2023-05-09T02:27:40.503Z,99.90
2023-05-09T02:30:13.708Z,99.90
2023-05-09T02:32:45.307Z,99.90
2023-05-09T02:35:16.479Z,99.90
2023-05-09T02:37:45.738Z,99.90
2023-05-09T02:40:14.841Z,99.90
2023-05-09T02:42:42.936Z,99.90
2023-05-09T02:45:12.746Z,99.90
2023-05-09T02:47:41.174Z,99.90
2023-05-09T02:50:09.714Z,99.90
2023-05-09T02:52:39.512Z,99.90
2023-05-09T02:55:09.528Z,99.90
2023-05-09T02:57:40.695Z,99.90
2023-05-09T03:00:10.318Z,99.90
2023-05-09T03:02:39.971Z,99.90
2023-05-09T03:05:14.408Z,99.90
2023-05-09T03:07:43.291Z,99.90
2023-05-09T03:10:12.329Z,99.90
2023-05-09T03:12:43.732Z,99.90
2023-05-09T03:15:13.155Z,99.90
2023-05-09T03:17:44.025Z,99.90
2023-05-09T03:20:12.783Z,99.90
2023-05-09T03:22:40.773Z,99.90
2023-05-09T03:25:11.551Z,99.90
2023-05-09T03:27:40.029Z,99.90
2023-05-09T03:30:13.237Z,99.90
2023-05-09T03:32:44.236Z,99.90
2023-05-09T03:35:13.835Z,99.90
2023-05-09T03:37:42.001Z,99.90
2023-05-09T03:40:11.411Z,99.90
2023-05-09T03:42:49.609Z,99.90
2023-05-09T03:45:17.788Z,99.90
2023-05-09T03:47:49.322Z,99.90
2023-05-09T03:50:17.631Z,99.90
2023-05-09T03:52:46.313Z,99.90
2023-05-09T03:55:18.465Z,99.90
2023-05-09T03:57:46.520Z,99.90
2023-05-09T04:00:15.511Z,99.90
2023-05-09T04:02:52.142Z,99.90
2023-05-09T04:05:30.128Z,99.90
2023-05-09T04:07:59.359Z,99.90
2023-05-09T04:10:27.348Z,99.90
2023-05-09T04:12:56.726Z,99.90
2023-05-09T04:15:24.798Z,99.90
2023-05-09T04:17:54.208Z,99.90
2023-05-09T04:20:22.429Z,99.90
2023-05-09T04:22:50.377Z,99.90
2023-05-09T04:25:21.572Z,99.90
2023-05-09T04:27:49.765Z,99.90
2023-05-09T04:30:18.033Z,99.90
2023-05-09T04:32:47.250Z,99.90
2023-05-09T04:35:20.396Z,99.90
2023-05-09T04:37:50.034Z,99.90
2023-05-09T04:40:18.772Z,99.90
2023-05-09T04:42:54.619Z,99.90
2023-05-09T04:45:27.743Z,99.90
2023-05-09T04:47:56.603Z,99.90
2023-05-09T04:50:25.915Z,99.90
2023-05-09T04:52:53.898Z,99.90
2023-05-09T04:55:21.767Z,99.90
2023-05-09T04:57:51.494Z,99.90
2023-05-09T05:00:19.765Z,99.90
2023-05-09T05:02:49.652Z,99.90
2023-05-09T05:05:17.719Z,99.90
2023-05-09T05:07:47.515Z,99.90
2023-05-09T05:10:20.800Z,99.90
2023-05-09T05:12:54.605Z,99.90
2023-05-09T05:15:22.687Z,99.90
2023-05-09T05:17:51.623Z,99.90
2023-05-09T05:20:23.865Z,99.90
2023-05-09T05:22:54.448Z,99.90
2023-05-09T05:25:22.590Z,99.90
2023-05-09T05:27:53.308Z,99.90
2023-05-09T05:30:21.836Z,99.90
2023-05-09T05:32:50.525Z,99.90
2023-05-09T05:35:23.128Z,99.90
2023-05-09T05:37:55.420Z,99.90
2023-05-09T05:40:24.252Z,99.90
2023-05-09T05:42:54.307Z,99.90
2023-05-09T05:45:24.097Z,99.90
2023-05-09T05:47:56.198Z,99.90
2023-05-09T05:50:24.995Z,99.90
2023-05-09T05:52:55.947Z,99.90
2023-05-09T05:55:24.573Z,99.90
2023-05-09T05:57:53.253Z,99.90
2023-05-09T06:00:21.652Z,99.90
2023-05-09T06:02:56.545Z,99.90
2023-05-09T06:05:39.021Z,99.90
2023-05-09T06:08:08.786Z,99.90
2023-05-09T06:10:37.660Z,99.90
2023-05-09T06:13:05.698Z,99.90
2023-05-09T06:15:34.375Z,99.90
2023-05-09T06:18:02.468Z,99.90
2023-05-09T06:20:30.537Z,99.90
2023-05-09T06:22:58.451Z,99.90
2023-05-09T06:25:28.932Z,99.90
2023-05-09T06:27:56.967Z,99.90
2023-05-09T06:30:27.103Z,99.90
2023-05-09T06:32:55.537Z,99.90
2023-05-09T06:35:23.568Z,99.90
2023-05-09T06:37:51.565Z,99.90
2023-05-09T06:40:19.669Z,99.90
2023-05-09T06:42:48.951Z,99.90
2023-05-09T06:45:17.718Z,99.90
2023-05-09T06:47:46.009Z,99.90
2023-05-09T06:50:13.946Z,99.90
2023-05-09T06:52:42.642Z,99.90
2023-05-09T06:55:11.652Z,99.90
2023-05-09T06:57:40.421Z,99.90
2023-05-09T07:00:11.302Z,99.90
2023-05-09T07:02:41.732Z,99.90
2023-05-09T07:05:10.815Z,99.90
2023-05-09T07:07:38.865Z,99.90
2023-05-09T07:10:12.028Z,99.90
2023-05-09T07:12:40.806Z,99.90
2023-05-09T07:15:11.499Z,99.90
2023-05-09T07:17:39.603Z,99.90
2023-05-09T07:20:08.838Z,99.90
2023-05-09T07:22:37.781Z,99.90
2023-05-09T07:25:08.256Z,99.90
2023-05-09T07:27:36.489Z,99.90
2023-05-09T07:30:04.613Z,99.90
2023-05-09T07:32:33.967Z,99.90
2023-05-09T07:35:02.063Z,99.90
2023-05-09T07:37:30.025Z,99.90
2023-05-09T07:39:58.016Z,99.90
2023-05-09T07:42:26.306Z,99.90
2023-05-09T07:44:54.311Z,99.90
2023-05-09T07:47:22.233Z,99.90
2023-05-09T07:49:51.768Z,99.90
2023-05-09T07:52:19.784Z,99.90
2023-05-09T07:54:47.642Z,99.90
2023-05-09T07:57:16.083Z,99.90
2023-05-09T07:59:44.114Z,99.90
2023-05-09T08:02:12.079Z,99.90
2023-05-09T08:04:41.364Z,99.90
2023-05-09T08:07:11.783Z,99.90
2023-05-09T08:09:39.929Z,99.90
2023-05-09T08:12:08.480Z,99.90
2023-05-09T08:14:36.528Z,99.90
2023-05-09T08:17:04.392Z,99.90
2023-05-09T08:19:32.307Z,99.90
2023-05-09T08:22:00.569Z,99.90
2023-05-09T08:24:31.812Z,99.90
2023-05-09T08:26:59.905Z,99.90
2023-05-09T08:29:28.886Z,99.90
2023-05-09T08:31:56.965Z,99.90
2023-05-09T08:34:24.952Z,99.90
2023-05-09T08:36:53.272Z,99.90
2023-05-09T08:39:21.184Z,99.90
2023-05-09T08:41:51.038Z,99.90
2023-05-09T08:44:19.169Z,99.90
2023-05-09T08:46:49.172Z,99.90
2023-05-09T08:49:17.802Z,99.90
2023-05-09T08:51:47.008Z,99.90
2023-05-09T08:54:15.537Z,99.90
2023-05-09T08:56:43.690Z,99.90
2023-05-09T08:59:14.575Z,99.90
2023-05-09T09:01:42.812Z,99.90
2023-05-09T09:04:11.887Z,99.90
2023-05-09T09:06:41.364Z,99.90
2023-05-09T09:09:09.836Z,99.90
2023-05-09T09:11:38.876Z,99.90
2023-05-09T09:14:11.827Z,99.90
2023-05-09T09:16:43.546Z,99.90
2023-05-09T09:19:14.083Z,99.90
2023-05-09T09:21:45.659Z,99.90
2023-05-09T09:24:15.547Z,99.90
2023-05-09T09:26:48.177Z,99.90
2023-05-09T09:29:17.819Z,99.90
2023-05-09T09:31:48.290Z,99.90
2023-05-09T09:34:24.467Z,99.90
2023-05-09T09:36:52.637Z,99.90
2023-05-09T09:39:21.716Z,99.90
2023-05-09T09:41:49.983Z,99.90
2023-05-09T09:44:20.770Z,99.90
2023-05-09T09:46:51.794Z,99.90
2023-05-09T09:49:21.438Z,98.40
2023-05-09T09:51:53.172Z,99.90
2023-05-09T09:54:21.548Z,98.20
2023-05-09T09:56:50.872Z,99.90
2023-05-09T09:59:21.168Z,98.00
2023-05-09T10:02:07.009Z,98.00
2023-05-09T10:04:37.336Z,95.10
2023-05-09T10:07:06.899Z,94.90
2023-05-09T10:09:37.794Z,95.90
2023-05-09T10:12:07.377Z,96.20
2023-05-09T10:14:37.565Z,95.80
2023-05-09T10:17:07.470Z,95.20
2023-05-09T10:19:39.068Z,94.60
2023-05-09T10:22:10.745Z,95.50
2023-05-09T10:24:47.615Z,93.90
2023-05-09T10:27:19.044Z,93.50
2023-05-09T10:29:51.457Z,94.30
2023-05-09T10:32:27.552Z,93.00
2023-05-09T10:35:03.045Z,94.00
2023-05-09T10:37:33.512Z,94.90
2023-05-09T10:40:04.875Z,95.40
2023-05-09T10:42:33.445Z,95.80
2023-05-09T10:45:02.412Z,96.10
2023-05-09T10:47:33.312Z,95.30
2023-05-09T10:50:01.827Z,92.50
2023-05-09T10:52:33.905Z,88.90
2023-05-09T10:55:03.756Z,91.30
2023-05-09T10:57:32.718Z,90.80
2023-05-09T11:00:01.341Z,91.40
2023-05-09T11:02:32.213Z,91.40
2023-05-09T11:05:18.537Z,90.00
2023-05-09T11:07:46.572Z,87.70
2023-05-09T11:10:17.610Z,88.70
2023-05-09T11:13:03.598Z,86.80
2023-05-09T11:15:31.876Z,82.20
2023-05-09T11:18:11.004Z,86.20
2023-05-09T11:20:46.418Z,85.70
2023-05-09T11:23:17.346Z,82.50
2023-05-09T11:25:47.779Z,85.30
2023-05-09T11:28:28.061Z,85.50
2023-05-09T11:31:10.934Z,84.60
2023-05-09T11:33:40.124Z,80.80
2023-05-09T11:36:19.933Z,81.40
2023-05-09T11:38:48.952Z,80.90
2023-05-09T11:41:17.309Z,81.30
2023-05-09T11:43:46.029Z,83.80
2023-05-09T11:46:13.982Z,83.70
2023-05-09T11:48:42.894Z,80.00
2023-05-09T11:51:19.602Z,81.80
2023-05-09T11:53:51.354Z,78.10
2023-05-09T11:56:19.808Z,79.60
2023-05-09T11:58:47.763Z,78.60
2023-05-09T12:01:16.036Z,76.50
2023-05-09T12:03:45.464Z,76.70
2023-05-09T12:06:17.278Z,76.00
2023-05-09T12:08:47.432Z,77.00
2023-05-09T12:11:15.831Z,77.60
2023-05-09T12:13:48.397Z,77.00
2023-05-09T12:16:17.374Z,76.10
2023-05-09T12:18:47.218Z,78.70
2023-05-09T12:21:17.027Z,75.90
2023-05-09T12:23:49.844Z,77.10
2023-05-09T12:26:19.348Z,75.10
2023-05-09T12:28:48.511Z,75.50
2023-05-09T12:31:18.519Z,75.60
2023-05-09T12:33:46.859Z,79.20
2023-05-09T12:36:16.009Z,78.60
2023-05-09T12:38:55.301Z,79.20
2023-05-09T12:41:37.047Z,78.80
2023-05-09T12:44:07.794Z,79.30
2023-05-09T12:46:37.439Z,79.70
2023-05-09T12:49:05.752Z,81.10
2023-05-09T12:51:33.644Z,80.70
2023-05-09T12:54:05.897Z,83.50
2023-05-09T12:56:36.388Z,80.40
2023-05-09T12:59:04.356Z,81.40
2023-05-09T13:01:32.388Z,82.60
2023-05-09T13:04:05.142Z,83.00
2023-05-09T13:06:33.218Z,84.70
2023-05-09T13:09:02.285Z,84.80
2023-05-09T13:11:31.930Z,83.00
2023-05-09T13:13:59.895Z,83.20
2023-05-09T13:16:28.029Z,81.60
2023-05-09T13:18:56.037Z,81.90
2023-05-09T13:21:24.065Z,85.10
2023-05-09T13:23:52.319Z,82.90
2023-05-09T13:26:21.098Z,84.00
2023-05-09T13:28:50.475Z,87.70
2023-05-09T13:31:19.250Z,84.60
2023-05-09T13:33:49.946Z,85.00
2023-05-09T13:36:19.621Z,83.00
2023-05-09T13:38:47.702Z,82.10
2023-05-09T13:41:20.064Z,81.80
2023-05-09T13:43:51.016Z,81.10
2023-05-09T13:46:19.081Z,80.50
2023-05-09T13:48:47.689Z,82.60
2023-05-09T13:51:15.721Z,84.40
2023-05-09T13:53:43.684Z,80.10
2023-05-09T13:56:12.779Z,81.10
2023-05-09T13:58:40.733Z,83.90
2023-05-09T14:01:10.072Z,90.40
2023-05-09T14:03:38.509Z,84.20
2023-05-09T14:06:08.569Z,85.80
2023-05-09T14:08:36.773Z,84.30
2023-05-09T14:11:04.649Z,83.50
2023-05-09T14:13:32.913Z,82.50
2023-05-09T14:16:00.877Z,83.50
2023-05-09T14:18:30.254Z,81.40
2023-05-09T14:20:58.390Z,81.80
2023-05-09T14:23:26.334Z,83.80
2023-05-09T14:25:54.283Z,79.30
2023-05-09T14:28:22.406Z,77.70
2023-05-09T14:30:50.323Z,78.90
2023-05-09T14:33:18.495Z,78.50
2023-05-09T14:35:47.897Z,77.00
2023-05-09T14:38:15.954Z,76.60
2023-05-09T14:40:43.813Z,74.70
2023-05-09T14:43:12.752Z,75.90
2023-05-09T14:45:40.660Z,78.30
2023-05-09T14:48:08.674Z,76.00
2023-05-09T14:50:36.637Z,77.10
2023-05-09T14:53:06.204Z,77.70
2023-05-09T14:55:34.136Z,79.40
2023-05-09T14:58:02.600Z,80.30
2023-05-09T15:00:30.857Z,78.00
2023-05-09T15:02:58.777Z,78.80
2023-05-09T15:05:26.833Z,79.90
2023-05-09T15:07:54.715Z,79.80
2023-05-09T15:10:24.441Z,78.40
2023-05-09T15:12:52.629Z,78.80
2023-05-09T15:15:23.150Z,76.30
2023-05-09T15:17:51.621Z,76.50
2023-05-09T15:20:19.866Z,74.40
2023-05-09T15:22:49.960Z,76.80
2023-05-09T15:25:18.216Z,78.30
2023-05-09T15:27:50.238Z,76.40
2023-05-09T15:30:18.500Z,77.10
2023-05-09T15:32:46.829Z,77.70
2023-05-09T15:35:15.793Z,77.30
2023-05-09T15:37:43.695Z,75.90
2023-05-09T15:40:13.279Z,76.70
2023-05-09T15:42:41.342Z,75.90
2023-05-09T15:45:11.295Z,76.60
2023-05-09T15:47:39.281Z,78.00
2023-05-09T15:50:08.345Z,77.00
2023-05-09T15:52:36.288Z,76.50
2023-05-09T15:55:04.427Z,75.80
2023-05-09T15:57:32.404Z,74.90
2023-05-09T16:00:00.302Z,74.70
2023-05-09T16:02:29.859Z,75.50
2023-05-09T16:04:57.941Z,75.80
2023-05-09T16:07:27.147Z,74.40
2023-05-09T16:09:55.126Z,75.30
2023-05-09T16:12:24.196Z,74.40
2023-05-09T16:14:52.160Z,75.40
2023-05-09T16:17:20.068Z,74.30
2023-05-09T16:19:49.448Z,74.60
2023-05-09T16:22:17.400Z,74.40
2023-05-09T16:24:47.558Z,74.20
2023-05-09T16:27:15.504Z,73.80
2023-05-09T16:29:43.464Z,74.70
2023-05-09T16:32:11.552Z,74.40
2023-05-09T16:34:39.544Z,73.30
2023-05-09T16:37:08.823Z,73.00
2023-05-09T16:39:36.963Z,72.30
2023-05-09T16:42:05.383Z,73.80
2023-05-09T16:44:33.366Z,73.40
2023-05-09T16:47:01.359Z,73.60
2023-05-09T16:49:29.483Z,73.00
2023-05-09T16:51:57.415Z,73.40
2023-05-09T16:54:28.303Z,74.20
2023-05-09T16:56:56.334Z,74.50
2023-05-09T16:59:24.304Z,73.70
2023-05-09T17:01:53.777Z,72.30
2023-05-09T17:04:21.793Z,72.00
2023-05-09T17:06:51.714Z,71.30
2023-05-09T17:09:19.743Z,71.70
2023-05-09T17:11:49.241Z,72.70
2023-05-09T17:14:17.402Z,72.70
2023-05-09T17:16:45.426Z,72.60
2023-05-09T17:19:13.425Z,72.10
2023-05-09T17:21:41.612Z,72.60
2023-05-09T17:24:10.210Z,71.80
2023-05-09T17:26:38.685Z,71.80
2023-05-09T17:29:08.075Z,72.70
2023-05-09T17:31:36.136Z,73.10
2023-05-09T17:34:04.274Z,73.40
2023-05-09T17:36:33.497Z,73.00
2023-05-09T17:39:01.735Z,73.50
2023-05-09T17:41:29.768Z,71.80
2023-05-09T17:43:57.707Z,72.60
2023-05-09T17:46:27.428Z,73.40
2023-05-09T17:48:55.411Z,73.60
2023-05-09T17:51:23.407Z,73.20
2023-05-09T17:53:52.682Z,74.20
2023-05-09T17:56:21.207Z,74.40
2023-05-09T17:58:52.854Z,74.40
2023-05-09T18:01:21.082Z,73.90
2023-05-09T18:03:50.547Z,74.30
2023-05-09T18:06:19.323Z,74.40
2023-05-09T18:08:47.255Z,74.70
2023-05-09T18:11:15.405Z,74.80
2023-05-09T18:13:43.409Z,75.30
2023-05-09T18:16:11.345Z,75.20
2023-05-09T18:18:39.299Z,75.60
2023-05-09T18:21:09.574Z,75.50
2023-05-09T18:23:37.651Z,75.80
2023-05-09T18:26:05.602Z,75.90
2023-05-09T18:28:39.164Z,76.30
2023-05-09T18:31:09.300Z,76.10
2023-05-09T18:33:38.899Z,76.60
2023-05-09T18:36:10.943Z,76.00
2023-05-09T18:38:39.743Z,76.70
2023-05-09T18:41:08.554Z,76.80
2023-05-09T18:43:38.645Z,76.50
2023-05-09T18:46:07.953Z,76.10
2023-05-09T18:48:35.884Z,76.50
2023-05-09T18:51:04.308Z,76.70
2023-05-09T18:53:33.717Z,77.20
2023-05-09T18:56:01.739Z,77.20
2023-05-09T18:58:29.681Z,77.00
2023-05-09T19:00:57.675Z,77.10
2023-05-09T19:03:27.128Z,77.30
2023-05-09T19:05:55.070Z,77.30
2023-05-09T19:08:23.155Z,77.90
2023-05-09T19:10:52.442Z,78.10
2023-05-09T19:13:20.405Z,78.50
2023-05-09T19:15:48.696Z,78.80
2023-05-09T19:18:16.630Z,79.10
2023-05-09T19:20:47.431Z,79.70
2023-05-09T19:23:15.527Z,79.40
2023-05-09T19:25:43.438Z,80.30
2023-05-09T19:28:14.511Z,80.50
2023-05-09T19:30:42.605Z,81.20
2023-05-09T19:33:11.324Z,80.90
2023-05-09T19:35:41.965Z,81.60
2023-05-09T19:38:10.870Z,82.00
2023-05-09T19:40:39.064Z,81.70
2023-05-09T19:43:06.990Z,82.80
2023-05-09T19:45:36.280Z,83.10
2023-05-09T19:48:04.224Z,83.60
2023-05-09T19:50:32.208Z,84.00
2023-05-09T19:53:00.156Z,84.30
2023-05-09T19:55:28.355Z,84.70
2023-05-09T19:57:56.306Z,85.20
2023-05-09T20:00:24.441Z,85.10
2023-05-09T20:02:53.727Z,86.10
2023-05-09T20:05:21.873Z,86.20
2023-05-09T20:07:50.067Z,86.00
2023-05-09T20:10:19.792Z,86.80
2023-05-09T20:12:47.747Z,87.30
2023-05-09T20:15:15.717Z,87.90
2023-05-09T20:17:44.505Z,88.60
2023-05-09T20:20:14.399Z,88.30
2023-05-09T20:22:42.463Z,89.40
2023-05-09T20:25:13.003Z,89.80
2023-05-09T20:27:41.133Z,89.80
2023-05-09T20:30:09.967Z,90.30
2023-05-09T20:32:37.918Z,90.70
2023-05-09T20:35:06.537Z,90.70
2023-05-09T20:37:36.286Z,91.40
2023-05-09T20:40:06.426Z,91.40
2023-05-09T20:42:34.447Z,92.20
2023-05-09T20:45:02.785Z,92.90
2023-05-09T20:47:30.767Z,92.30
2023-05-09T20:49:58.734Z,93.10
2023-05-09T20:52:26.727Z,93.60
2023-05-09T20:54:55.996Z,93.90
2023-05-09T20:57:23.967Z,94.40
2023-05-09T20:59:51.864Z,94.30
2023-05-09T21:02:19.894Z,95.10
2023-05-09T21:04:47.805Z,95.30
2023-05-09T21:07:19.038Z,95.70
2023-05-09T21:09:48.110Z,96.20
2023-05-09T21:12:17.432Z,97.10
2023-05-09T21:14:45.632Z,97.20
2023-05-09T21:17:13.603Z,98.00
2023-05-09T21:19:41.577Z,98.30
2023-05-09T21:22:09.672Z,99.90
2023-05-09T21:24:37.619Z,99.90
2023-05-09T21:27:06.091Z,99.70
2023-05-09T21:29:35.430Z,99.90
2023-05-09T21:32:03.260Z,99.90
2023-05-09T21:34:31.177Z,99.90
2023-05-09T21:36:59.122Z,99.90
2023-05-09T21:39:27.041Z,99.90
2023-05-09T21:41:54.995Z,99.90
2023-05-09T21:44:22.951Z,99.90
2023-05-09T21:46:52.179Z,99.90
2023-05-09T21:49:21.667Z,99.90
2023-05-09T21:51:49.657Z,99.90
2023-05-09T21:54:17.562Z,99.90
2023-05-09T21:56:45.439Z,99.90
2023-05-09T21:59:13.847Z,99.90
2023-05-09T22:01:43.688Z,99.90
2023-05-09T22:04:14.427Z,99.90
2023-05-09T22:06:43.367Z,99.90
2023-05-09T22:09:11.550Z,99.90
2023-05-09T22:11:39.748Z,99.90
2023-05-09T22:14:10.040Z,99.90
2023-05-09T22:16:38.377Z,99.90
2023-05-09T22:19:06.347Z,99.90
2023-05-09T22:21:35.651Z,99.90
2023-05-09T22:24:03.720Z,99.90
2023-05-09T22:26:31.658Z,99.90
2023-05-09T22:28:59.645Z,99.90
2023-05-09T22:31:27.582Z,99.90
2023-05-09T22:33:55.555Z,99.90
2023-05-09T22:36:23.412Z,99.90
2023-05-09T22:38:52.721Z,99.90
2023-05-09T22:41:22.081Z,99.90
2023-05-09T22:43:50.003Z,99.90
2023-05-09T22:46:17.974Z,99.90
2023-05-09T22:48:45.961Z,99.90
2023-05-09T22:51:14.903Z,99.90
2023-05-09T22:53:42.988Z,99.90
2023-05-09T22:56:12.704Z,99.90
2023-05-09T22:58:40.661Z,99.90
2023-05-09T23:01:08.542Z,99.90
2023-05-09T23:03:37.133Z,99.90
2023-05-09T23:06:05.940Z,99.90
2023-05-09T23:08:34.557Z,99.90
2023-05-09T23:11:02.470Z,99.90
2023-05-09T23:13:32.418Z,99.90
2023-05-09T23:16:00.383Z,99.90
2023-05-09T23:18:28.579Z,99.90
2023-05-09T23:20:56.515Z,99.90
2023-05-09T23:23:24.347Z,99.90
2023-05-09T23:25:52.324Z,99.90
2023-05-09T23:28:24.890Z,99.90
2023-05-09T23:30:54.905Z,99.90
2023-05-09T23:33:23.133Z,99.90
2023-05-09T23:35:51.073Z,99.90
2023-05-09T23:38:19.557Z,99.90
2023-05-09T23:40:47.601Z,99.90
2023-05-09T23:43:15.569Z,99.90
2023-05-09T23:45:43.542Z,99.90
2023-05-09T23:48:12.872Z,99.90
2023-05-09T23:50:40.819Z,99.90
2023-05-09T23:53:08.792Z,99.90
2023-05-09T23:55:37.220Z,99.90
2023-05-09T23:58:05.121Z,99.90
